createdAt,value
2023-01-03T00:02:30.499Z,9.38
2023-01-03T00:05:00.275Z,6.70
2023-01-03T00:07:35.811Z,6.00
2023-01-03T00:10:09.061Z,7.20
2023-01-03T00:12:36.487Z,7.65
2023-01-03T00:15:03.597Z,8.02
2023-01-03T00:17:30.231Z,6.80
2023-01-03T00:19:59.667Z,6.97
2023-01-03T00:22:28.620Z,13.00
2023-01-03T00:24:55.124Z,5.20
2023-01-03T00:27:21.618Z,7.40
2023-01-03T00:29:48.121Z,7.70
2023-01-03T00:32:15.289Z,7.20
2023-01-03T00:34:44.293Z,9.80
2023-01-03T00:37:10.989Z,8.50
2023-01-03T00:39:37.659Z,7.30
2023-01-03T00:42:04.440Z,7.60
2023-01-03T00:44:31.069Z,14.93
2023-01-03T00:46:59.962Z,8.77
2023-01-03T00:49:26.725Z,6.57
2023-01-03T00:51:56.054Z,7.25
2023-01-03T00:54:23.522Z,8.20
2023-01-03T00:56:51.169Z,8.65
2023-01-03T00:59:19.309Z,10.70
2023-01-03T01:01:51.772Z,7.18
2023-01-03T01:04:26.507Z,10.77
2023-01-03T01:06:58.818Z,9.45
2023-01-03T01:09:28.499Z,8.25
2023-01-03T01:11:55.644Z,10.68
2023-01-03T01:14:25.150Z,9.43
2023-01-03T01:16:57.546Z,7.68
2023-01-03T01:19:43.918Z,11.75
2023-01-03T01:22:11.475Z,9.20
2023-01-03T01:24:38.209Z,8.98
2023-01-03T01:27:05.410Z,8.88
2023-01-03T01:29:35.642Z,8.35
2023-01-03T01:32:06.109Z,10.02
2023-01-03T01:34:36.149Z,8.15
2023-01-03T01:37:05.653Z,8.82
2023-01-03T01:39:33.964Z,15.70
2023-01-03T01:42:30.489Z,20.95
2023-01-03T01:45:03.687Z,14.93
2023-01-03T01:47:39.305Z,11.77
2023-01-03T01:50:05.742Z,10.05
2023-01-03T01:52:37.673Z,10.55
2023-01-03T01:55:13.107Z,9.45
2023-01-03T01:57:41.441Z,8.15
2023-01-03T02:00:09.707Z,7.30
2023-01-03T02:02:36.559Z,11.25
2023-01-03T02:05:08.660Z,7.90
2023-01-03T02:07:38.817Z,9.00
2023-01-03T02:10:06.272Z,9.48
2023-01-03T02:12:57.692Z,6.70
2023-01-03T02:15:36.153Z,8.07
2023-01-03T02:18:21.428Z,7.97
2023-01-03T02:21:21.250Z,7.72
2023-01-03T02:24:07.248Z,6.03
2023-01-03T02:27:11.039Z,6.80
2023-01-03T02:30:13.415Z,12.68
2023-01-03T02:32:44.532Z,7.40
2023-01-03T02:35:57.393Z,8.85
2023-01-03T02:38:27.308Z,8.43
2023-01-03T02:41:16.962Z,8.18
2023-01-03T02:44:00.003Z,9.30
2023-01-03T02:46:46.750Z,10.95
2023-01-03T02:49:17.316Z,10.88
2023-01-03T02:51:47.489Z,10.05
2023-01-03T02:54:24.214Z,10.38
2023-01-03T02:56:58.745Z,9.38
2023-01-03T02:59:53.338Z,9.07
2023-01-03T03:02:24.094Z,9.73
2023-01-03T03:04:55.571Z,10.02
2023-01-03T03:07:39.259Z,9.18
2023-01-03T03:10:27.628Z,9.90
2023-01-03T03:13:16.045Z,8.13
2023-01-03T03:16:05.658Z,12.77
2023-01-03T03:18:53.005Z,10.82
2023-01-03T03:21:39.259Z,7.47
2023-01-03T03:24:39.717Z,7.78
2023-01-03T03:27:31.097Z,15.23
2023-01-03T03:30:02.719Z,11.50
2023-01-03T03:32:33.664Z,12.35
2023-01-03T03:35:03.409Z,17.95
2023-01-03T03:37:32.867Z,15.25
2023-01-03T03:40:17.902Z,16.05
2023-01-03T03:43:12.157Z,14.80
2023-01-03T03:45:44.647Z,13.73
2023-01-03T03:48:11.084Z,15.70
2023-01-03T03:50:49.752Z,12.27
2023-01-03T03:53:20.652Z,17.02
2023-01-03T03:55:56.668Z,10.75
2023-01-03T03:58:30.028Z,12.95
2023-01-03T04:00:57.866Z,11.93
2023-01-03T04:03:25.385Z,12.63
2023-01-03T04:06:03.582Z,15.65
2023-01-03T04:08:30.149Z,10.63
2023-01-03T04:11:05.668Z,13.55
2023-01-03T04:13:41.634Z,15.88
2023-01-03T04:16:08.288Z,25.23
2023-01-03T04:18:35.180Z,13.90
2023-01-03T04:21:01.748Z,15.35
2023-01-03T04:23:28.214Z,12.60
2023-01-03T04:25:54.726Z,8.52
2023-01-03T04:28:21.255Z,9.23
2023-01-03T04:30:47.916Z,12.32
2023-01-03T04:33:14.463Z,19.02
2023-01-03T04:35:44.005Z,13.90
2023-01-03T04:38:12.474Z,12.15
2023-01-03T04:40:39.080Z,9.88
2023-01-03T04:43:24.249Z,14.57
2023-01-03T04:45:51.489Z,15.20
2023-01-03T04:48:18.315Z,10.23
2023-01-03T04:50:58.542Z,12.02
2023-01-03T04:53:27.461Z,12.85
2023-01-03T04:55:56.834Z,11.32
2023-01-03T04:58:24.116Z,20.27
2023-01-03T05:00:51.175Z,21.55
2023-01-03T05:03:21.216Z,42.60
2023-01-03T05:05:52.292Z,48.90
2023-01-03T05:08:19.144Z,96.65
2023-01-03T05:10:45.623Z,81.40
2023-01-03T05:13:15.508Z,56.00
2023-01-03T05:15:42.040Z,24.45
2023-01-03T05:18:08.520Z,55.67
2023-01-03T05:20:56.937Z,18.52
2023-01-03T05:23:42.667Z,33.38
2023-01-03T05:26:17.004Z,39.63
2023-01-03T05:28:49.742Z,44.65
2023-01-03T05:31:16.417Z,50.10
2023-01-03T05:33:43.168Z,33.00
2023-01-03T05:36:10.363Z,43.33
2023-01-03T05:38:38.098Z,32.90
2023-01-03T05:41:05.636Z,28.40
2023-01-03T05:43:32.217Z,17.60
2023-01-03T05:45:58.831Z,23.75
2023-01-03T05:48:25.451Z,34.67
2023-01-03T05:50:52.309Z,118.63
2023-01-03T05:53:18.876Z,63.65
2023-01-03T05:55:46.017Z,53.55
2023-01-03T05:58:12.995Z,76.43
2023-01-03T06:00:39.548Z,51.55
2023-01-03T06:03:06.307Z,70.13
2023-01-03T06:05:32.969Z,19.17
2023-01-03T06:08:01.666Z,69.43
2023-01-03T06:10:28.706Z,15.83
2023-01-03T06:12:55.385Z,22.60
2023-01-03T06:15:22.051Z,49.53
2023-01-03T06:17:54.852Z,25.17
2023-01-03T06:20:21.814Z,34.05
2023-01-03T06:22:49.230Z,85.88
2023-01-03T06:25:15.759Z,31.40
2023-01-03T06:27:42.272Z,43.25
2023-01-03T06:30:09.749Z,56.22
2023-01-03T06:32:36.367Z,27.17
2023-01-03T06:35:02.881Z,32.20
2023-01-03T06:37:29.373Z,56.53
2023-01-03T06:39:55.860Z,41.42
2023-01-03T06:42:42.416Z,52.40
2023-01-03T06:45:29.036Z,19.80
2023-01-03T06:48:14.469Z,19.05
2023-01-03T06:51:01.359Z,27.35
2023-01-03T06:53:35.236Z,21.03
2023-01-03T06:56:02.164Z,18.05
2023-01-03T06:58:28.771Z,25.95
2023-01-03T07:00:56.759Z,21.42
2023-01-03T07:03:24.161Z,18.48
2023-01-03T07:05:53.568Z,14.93
2023-01-03T07:08:22.839Z,18.88
2023-01-03T07:10:51.372Z,42.47
2023-01-03T07:13:36.534Z,24.95
2023-01-03T07:16:03.185Z,32.60
2023-01-03T07:18:29.880Z,15.93
2023-01-03T07:20:56.410Z,42.97
2023-01-03T07:23:22.975Z,59.55
2023-01-03T07:25:53.387Z,40.83
2023-01-03T07:28:23.008Z,43.70
2023-01-03T07:30:49.783Z,38.03
2023-01-03T07:33:17.660Z,29.17
2023-01-03T07:35:45.481Z,44.13
2023-01-03T07:38:13.333Z,30.13
2023-01-03T07:40:39.831Z,22.53
2023-01-03T07:43:24.871Z,32.85
2023-01-03T07:45:52.564Z,30.90
2023-01-03T07:48:19.074Z,35.17
2023-01-03T07:50:45.576Z,34.80
2023-01-03T07:53:17.041Z,36.83
2023-01-03T07:55:45.412Z,51.83
2023-01-03T07:58:11.988Z,27.23
2023-01-03T08:00:39.271Z,25.97
2023-01-03T08:03:10.558Z,19.23
2023-01-03T08:05:37.968Z,32.83
2023-01-03T08:08:07.238Z,21.13
2023-01-03T08:10:52.438Z,24.63
2023-01-03T08:13:19.354Z,25.03
2023-01-03T08:15:55.376Z,13.27
2023-01-03T08:18:27.453Z,10.63
2023-01-03T08:20:56.592Z,12.57
2023-01-03T08:23:23.759Z,20.53
2023-01-03T08:25:51.819Z,15.87
2023-01-03T08:28:18.728Z,27.33
2023-01-03T08:30:48.950Z,20.80
2023-01-03T08:33:18.506Z,23.83
2023-01-03T08:36:06.847Z,26.30
2023-01-03T08:38:37.273Z,25.90
2023-01-03T08:41:05.737Z,23.40
2023-01-03T08:43:36.033Z,30.47
2023-01-03T08:46:05.377Z,28.40
2023-01-03T08:48:32.010Z,25.90
2023-01-03T08:50:58.517Z,28.70
2023-01-03T08:53:25.087Z,15.35
2023-01-03T08:55:55.095Z,19.33
2023-01-03T08:58:24.889Z,25.40
2023-01-03T09:00:55.207Z,25.23
2023-01-03T09:03:24.929Z,18.30
2023-01-03T09:05:54.756Z,38.37
2023-01-03T09:08:24.511Z,21.33
2023-01-03T09:10:54.937Z,22.90
2023-01-03T09:13:24.869Z,18.80
2023-01-03T09:16:00.642Z,12.15
2023-01-03T09:18:27.330Z,20.35
2023-01-03T09:20:53.953Z,17.00
2023-01-03T09:23:22.528Z,20.15
2023-01-03T09:25:49.068Z,44.38
2023-01-03T09:28:15.621Z,15.20
2023-01-03T09:30:42.157Z,36.30
2023-01-03T09:33:10.671Z,20.48
2023-01-03T09:35:38.310Z,21.23
2023-01-03T09:38:05.417Z,28.08
2023-01-03T09:40:37.999Z,19.10
2023-01-03T09:43:18.570Z,21.15
2023-01-03T09:45:57.310Z,66.07
2023-01-03T09:48:36.117Z,37.88
2023-01-03T09:51:22.652Z,27.80
2023-01-03T09:54:08.005Z,30.63
2023-01-03T09:56:53.389Z,12.63
2023-01-03T09:59:38.533Z,48.95
2023-01-03T10:02:42.205Z,20.95
2023-01-03T10:05:29.609Z,28.42
2023-01-03T10:08:02.225Z,27.23
2023-01-03T10:10:40.218Z,23.15
2023-01-03T10:13:36.275Z,24.25
2023-01-03T10:16:19.283Z,17.38
2023-01-03T10:19:03.605Z,26.77
2023-01-03T10:21:33.145Z,10.40
2023-01-03T10:23:59.937Z,10.15
2023-01-03T10:26:33.129Z,16.38
2023-01-03T10:29:00.109Z,13.48
2023-01-03T10:31:54.849Z,18.10
2023-01-03T10:34:24.757Z,12.13
2023-01-03T10:36:55.028Z,15.32
2023-01-03T10:39:31.945Z,14.77
2023-01-03T10:41:59.871Z,11.77
2023-01-03T10:44:31.352Z,9.80
2023-01-03T10:47:00.307Z,13.55
2023-01-03T10:49:31.715Z,12.15
2023-01-03T10:52:12.157Z,12.85
2023-01-03T10:54:42.165Z,12.98
2023-01-03T10:57:44.296Z,12.05
2023-01-03T11:00:35.952Z,31.85
2023-01-03T11:03:25.771Z,20.65
2023-01-03T11:06:01.557Z,22.05
2023-01-03T11:08:37.186Z,24.75
2023-01-03T11:11:03.973Z,44.33
2023-01-03T11:13:41.709Z,29.80
2023-01-03T11:16:18.873Z,51.40
2023-01-03T11:19:00.445Z,28.52
2023-01-03T11:21:35.625Z,15.52
2023-01-03T11:24:07.956Z,15.77
2023-01-03T11:27:00.300Z,12.05
2023-01-03T11:29:48.203Z,11.68
2023-01-03T11:32:38.629Z,18.08
2023-01-03T11:35:23.490Z,10.15
2023-01-03T11:37:59.286Z,10.35
2023-01-03T11:40:39.829Z,14.98
2023-01-03T11:43:39.782Z,19.73
2023-01-03T11:46:26.675Z,20.33
2023-01-03T11:49:16.521Z,17.80
2023-01-03T11:52:01.170Z,13.80
2023-01-03T11:55:12.860Z,11.55
2023-01-03T11:57:58.829Z,12.50
2023-01-03T12:01:02.369Z,10.82
2023-01-03T12:03:54.837Z,8.85
2023-01-03T12:06:45.171Z,10.82
2023-01-03T12:09:18.359Z,10.77
2023-01-03T12:12:07.759Z,8.05
2023-01-03T12:14:44.075Z,9.20
2023-01-03T12:17:25.604Z,7.50
2023-01-03T12:20:04.038Z,5.53
2023-01-03T12:22:37.693Z,4.55
2023-01-03T12:25:29.930Z,6.03
2023-01-03T12:28:05.581Z,6.70
2023-01-03T12:30:48.574Z,34.00
2023-01-03T12:33:38.875Z,8.13
2023-01-03T12:36:25.367Z,7.88
2023-01-03T12:39:08.421Z,5.40
2023-01-03T12:41:42.472Z,6.32
2023-01-03T12:44:17.736Z,6.15
2023-01-03T12:46:56.551Z,7.15
2023-01-03T12:49:34.819Z,6.78
2023-01-03T12:52:01.304Z,9.13
2023-01-03T12:54:46.945Z,4.95
2023-01-03T12:57:42.599Z,5.82
2023-01-03T13:00:28.999Z,8.32
2023-01-03T13:03:02.603Z,8.65
2023-01-03T13:05:43.504Z,9.25
2023-01-03T13:08:43.485Z,6.63
2023-01-03T13:11:19.360Z,6.63
2023-01-03T13:13:57.622Z,5.53
2023-01-03T13:16:37.945Z,5.32
2023-01-03T13:19:36.399Z,6.68
2023-01-03T13:22:05.687Z,6.50
2023-01-03T13:24:53.786Z,6.40
2023-01-03T13:27:23.437Z,6.50
2023-01-03T13:29:49.915Z,6.32
2023-01-03T13:32:23.457Z,5.28
2023-01-03T13:34:59.157Z,6.68
2023-01-03T13:37:27.862Z,9.55
2023-01-03T13:40:00.412Z,7.53
2023-01-03T13:42:36.255Z,6.07
2023-01-03T13:45:29.259Z,4.85
2023-01-03T13:47:56.903Z,6.82
2023-01-03T13:50:32.427Z,3.95
2023-01-03T13:53:25.113Z,5.05
2023-01-03T13:56:17.292Z,4.72
2023-01-03T13:58:48.878Z,6.80
2023-01-03T14:01:47.815Z,7.03
2023-01-03T14:04:35.964Z,7.63
2023-01-03T14:07:31.860Z,7.07
2023-01-03T14:10:05.692Z,8.57
2023-01-03T14:13:14.367Z,7.40
2023-01-03T14:15:40.976Z,11.15
2023-01-03T14:18:26.940Z,13.80
2023-01-03T14:20:58.179Z,8.50
2023-01-03T14:26:17.687Z,12.10
2023-01-03T14:28:54.678Z,12.98
2023-01-03T14:31:28.332Z,11.85
2023-01-03T14:34:03.549Z,9.23
2023-01-03T14:36:30.093Z,8.43
2023-01-03T14:39:01.032Z,7.35
2023-01-03T14:41:35.698Z,9.77
2023-01-03T14:44:11.356Z,10.43
2023-01-03T14:46:40.618Z,8.50
2023-01-03T14:49:19.567Z,8.30
2023-01-03T14:51:46.412Z,8.40
2023-01-03T14:54:17.626Z,8.38
2023-01-03T14:56:46.782Z,8.52
2023-01-03T14:59:19.464Z,7.07
2023-01-03T15:01:46.829Z,6.25
2023-01-03T15:04:15.853Z,5.18
2023-01-03T15:07:03.517Z,5.60
2023-01-03T15:09:35.985Z,9.60
2023-01-03T15:12:06.250Z,8.85
2023-01-03T15:14:39.223Z,3.72
2023-01-03T15:17:14.780Z,4.63
2023-01-03T15:19:50.797Z,4.53
2023-01-03T15:22:26.733Z,6.22
2023-01-03T15:25:33.787Z,7.97
2023-01-03T15:28:22.141Z,10.10
2023-01-03T15:30:49.491Z,9.88
2023-01-03T15:33:35.960Z,6.28
2023-01-03T15:36:18.154Z,8.00
2023-01-03T15:38:46.817Z,8.38
2023-01-03T15:41:15.877Z,10.50
2023-01-03T15:43:42.667Z,7.93
2023-01-03T15:46:15.100Z,10.15
2023-01-03T15:48:54.852Z,8.25
2023-01-03T15:51:21.482Z,10.48
2023-01-03T15:53:48.296Z,22.23
2023-01-03T15:56:36.814Z,32.58
2023-01-03T15:59:08.399Z,8.40
2023-01-03T16:01:35.013Z,8.13
2023-01-03T16:04:02.171Z,6.15
2023-01-03T16:06:28.651Z,7.57
2023-01-03T16:08:55.161Z,7.95
2023-01-03T16:11:31.780Z,5.63
2023-01-03T16:14:04.019Z,11.10
2023-01-03T16:16:35.151Z,4.50
2023-01-03T16:19:04.257Z,5.32
2023-01-03T16:21:31.065Z,6.95
2023-01-03T16:23:57.606Z,7.25
2023-01-03T16:26:24.184Z,7.05
2023-01-03T16:28:50.706Z,9.35
2023-01-03T16:31:20.098Z,7.53
2023-01-03T16:33:49.162Z,9.75
2023-01-03T16:36:38.167Z,13.80
2023-01-03T16:39:13.157Z,8.30
2023-01-03T16:41:39.687Z,9.13
2023-01-03T16:44:06.177Z,8.60
2023-01-03T16:46:35.760Z,5.70
2023-01-03T16:49:02.572Z,9.70
2023-01-03T16:51:33.707Z,5.53
2023-01-03T16:54:07.532Z,7.93
2023-01-03T16:56:34.016Z,5.15
2023-01-03T16:59:03.634Z,6.03
2023-01-03T17:01:32.378Z,6.50
2023-01-03T17:03:59.050Z,8.80
2023-01-03T17:06:37.527Z,15.73
2023-01-03T17:09:19.105Z,8.82
2023-01-03T17:11:45.828Z,12.73
2023-01-03T17:14:21.159Z,10.63
2023-01-03T17:16:48.874Z,11.93
2023-01-03T17:20:02.810Z,9.65
2023-01-03T17:22:15.500Z,8.25
2023-01-03T17:24:42.880Z,6.70
2023-01-03T17:27:16.785Z,6.57
2023-01-03T17:29:43.475Z,7.57
2023-01-03T17:32:17.622Z,10.35
2023-01-03T17:34:44.213Z,11.25
2023-01-03T17:37:15.910Z,11.20
2023-01-03T17:39:42.871Z,13.70
2023-01-03T17:42:17.027Z,14.63
2023-01-03T17:45:05.964Z,11.52
2023-01-03T17:47:58.419Z,10.73
2023-01-03T17:50:25.430Z,10.55
2023-01-03T17:52:56.022Z,10.88
2023-01-03T17:55:26.271Z,7.50
2023-01-03T17:57:54.503Z,7.03
2023-01-03T18:00:27.116Z,13.27
2023-01-03T18:02:55.456Z,7.10
2023-01-03T18:05:28.268Z,7.35
2023-01-03T18:08:00.647Z,9.13
2023-01-03T18:10:37.327Z,11.50
2023-01-03T18:13:22.159Z,5.88
2023-01-03T18:15:49.389Z,7.63
2023-01-03T18:18:18.439Z,6.75
2023-01-03T18:20:45.837Z,6.50
2023-01-03T18:23:25.098Z,4.88
2023-01-03T18:25:52.460Z,6.60
2023-01-03T18:28:24.553Z,8.57
2023-01-03T18:30:51.389Z,5.43
2023-01-03T18:33:17.928Z,7.15
2023-01-03T18:35:45.130Z,7.43
2023-01-03T18:38:27.916Z,9.07
2023-01-03T18:41:00.670Z,6.20
2023-01-03T18:43:31.253Z,5.82
2023-01-03T18:45:57.828Z,5.65
2023-01-03T18:48:24.494Z,5.65
2023-01-03T18:50:58.486Z,6.30
2023-01-03T18:53:31.056Z,8.10
2023-01-03T18:55:57.947Z,7.13
2023-01-03T18:58:39.720Z,9.10
2023-01-03T19:01:10.319Z,8.15
2023-01-03T19:03:45.061Z,5.90
2023-01-03T19:06:19.771Z,7.78
2023-01-03T19:08:47.055Z,6.25
2023-01-03T19:11:17.434Z,6.22
2023-01-03T19:13:50.488Z,8.88
2023-01-03T19:16:19.343Z,10.75
2023-01-03T19:18:46.067Z,10.02
2023-01-03T19:21:14.340Z,8.73
2023-01-03T19:23:42.486Z,14.07
2023-01-03T19:26:27.702Z,10.52
2023-01-03T19:28:58.099Z,15.38
2023-01-03T19:31:26.504Z,9.55
2023-01-03T19:33:53.101Z,8.90
2023-01-03T19:36:22.212Z,7.18
2023-01-03T19:38:49.952Z,10.32
2023-01-03T19:41:19.120Z,7.43
2023-01-03T19:43:46.576Z,9.02
2023-01-03T19:46:18.346Z,11.60
2023-01-03T19:48:45.235Z,12.98
2023-01-03T19:51:12.639Z,14.68
2023-01-03T19:53:42.546Z,8.38
2023-01-03T19:56:21.083Z,9.85
2023-01-03T19:58:48.496Z,11.25
2023-01-03T20:01:17.736Z,7.30
2023-01-03T20:03:44.833Z,8.25
2023-01-03T20:06:13.821Z,8.63
2023-01-03T20:08:43.890Z,13.07
2023-01-03T20:11:17.597Z,15.45
2023-01-03T20:13:45.398Z,12.93
2023-01-03T20:16:13.045Z,11.55
2023-01-03T20:18:43.524Z,7.88
2023-01-03T20:21:23.644Z,13.40
2023-01-03T20:24:01.578Z,8.00
2023-01-03T20:26:33.459Z,10.60
2023-01-03T20:29:00.718Z,14.00
2023-01-03T20:31:27.826Z,12.83
2023-01-03T20:33:54.382Z,13.60
2023-01-03T20:36:24.139Z,14.23
2023-01-03T20:38:54.371Z,8.25
2023-01-03T20:41:21.445Z,17.77
2023-01-03T20:43:50.180Z,12.20
2023-01-03T20:46:20.523Z,16.33
2023-01-03T20:48:56.011Z,16.33
2023-01-03T20:51:24.478Z,16.83
2023-01-03T20:53:54.683Z,14.70
2023-01-03T20:56:22.133Z,8.87
2023-01-03T20:58:48.790Z,10.67
2023-01-03T21:01:15.389Z,14.67
2023-01-03T21:03:42.141Z,12.13
2023-01-03T21:06:21.156Z,12.40
2023-01-03T21:08:54.207Z,12.43
2023-01-03T21:11:26.631Z,12.13
2023-01-03T21:13:54.355Z,10.23
2023-01-03T21:16:23.922Z,9.10
2023-01-03T21:18:50.456Z,8.53
2023-01-03T21:21:21.911Z,7.87
2023-01-03T21:23:48.693Z,10.57
2023-01-03T21:26:15.290Z,11.32
2023-01-03T21:28:41.958Z,15.17
2023-01-03T21:31:17.566Z,12.73
2023-01-03T21:33:44.370Z,9.18
2023-01-03T21:36:23.845Z,9.20
2023-01-03T21:38:51.099Z,11.57
2023-01-03T21:41:20.720Z,8.30
2023-01-03T21:43:47.397Z,12.97
2023-01-03T21:46:19.197Z,12.60
2023-01-03T21:48:46.090Z,13.23
2023-01-03T21:51:20.835Z,11.83
2023-01-03T21:53:56.947Z,14.02
2023-01-03T21:56:24.967Z,8.97
2023-01-03T21:58:52.122Z,8.87
2023-01-03T22:01:24.521Z,10.57
2023-01-03T22:04:12.633Z,23.90
2023-01-03T22:06:39.466Z,80.57
2023-01-03T22:09:25.949Z,99.23
2023-01-03T22:11:52.772Z,29.50
2023-01-03T22:14:19.266Z,44.23
2023-01-03T22:16:45.804Z,64.47
2023-01-03T22:19:15.102Z,54.67
2023-01-03T22:21:43.681Z,39.77
2023-01-03T22:24:10.221Z,29.43
2023-01-03T22:26:37.155Z,18.60
2023-01-03T22:29:05.402Z,28.70
2023-01-03T22:31:32.197Z,10.23
2023-01-03T22:33:58.729Z,21.37
2023-01-03T22:36:25.251Z,12.20
2023-01-03T22:38:52.752Z,10.73
2023-01-03T22:41:19.727Z,12.20
2023-01-03T22:43:46.764Z,9.83
2023-01-03T22:46:17.631Z,8.10
2023-01-03T22:48:47.322Z,6.33
2023-01-03T22:51:17.338Z,9.27
2023-01-03T22:53:49.113Z,10.50
2023-01-03T22:56:18.863Z,7.80
2023-01-03T22:58:48.608Z,9.63
2023-01-03T23:01:18.721Z,7.97
2023-01-03T23:03:49.221Z,9.90
2023-01-03T23:06:19.045Z,10.00
2023-01-03T23:08:52.274Z,8.80
2023-01-03T23:11:40.045Z,12.43
2023-01-03T23:14:13.311Z,8.57
2023-01-03T23:16:40.440Z,8.50
2023-01-03T23:19:11.039Z,10.53
2023-01-03T23:21:38.361Z,7.67
2023-01-03T23:24:05.278Z,10.87
2023-01-03T23:26:32.024Z,12.37
2023-01-03T23:29:00.272Z,8.57
2023-01-03T23:31:27.809Z,11.03
2023-01-03T23:33:56.018Z,9.70
2023-01-03T23:36:23.171Z,9.30
2023-01-03T23:38:49.759Z,9.80
2023-01-03T23:41:17.352Z,8.87
2023-01-03T23:43:44.068Z,8.37
2023-01-03T23:46:15.120Z,7.43
2023-01-03T23:48:41.876Z,13.07
2023-01-03T23:51:10.266Z,12.27
2023-01-03T23:53:43.778Z,9.90
2023-01-03T23:56:13.951Z,8.20
2023-01-03T23:58:40.888Z,13.13
